Greenwich Township, New Jersey
Current Conditions -  °F | °C
As of 2:54 AM on Thursday 27 Nov 2014 (Local Time) from KMIV Reporting Station
Broken Clouds Broken Clouds  
Wind Chill: 29°   Ceiling: 6500
Heat Index: 35°   Visibility: 10mi
Dew Point: 33°   Wind: 7mph
Humidity: 92%   Direction: 260°W
Pressure: 29.98"   Gusts: NA
Location:  39.386°N, 75.3403°W
Report Text: KMIV 270754Z AUTO 26006KT 10SM SCT028 BKN065 02/01 A2998 RMK AO2 SLP151 T00170006
Loading
Personal Weather Stations






























Interactive Weather Map New forecast layout! Learn more

10-Day Weather Forecast

Advertisements
Track Severe Weather on mobile